Time;durP1;ratioP1;P1;durP2;ratioP2;P2;SDS_P1;SDS_P2;PMS_P1;PMS_P2;Temp;Humidity;BMP_temperature;BMP_pressure;BME280_temperature;BME280_humidity;BME280_pressure;Samples;Min_cycle;Max_cycle;Signal;HPM_P1;HPM_P2
2022/03/16 00:01:33;;;;;;;1.67;1.63;;;;;;;;;;5092628;28;20529;-77
2022/03/16 00:03:58;;;;;;;2.35;2.13;;;;;;;;;;5092493;28;20107;-77
2022/03/16 00:06:23;;;;;;;2.10;2.00;;;;;;;;;;5092480;28;20020;-78
2022/03/16 00:08:49;;;;;;;2.35;2.25;;;;;;;;;;5092157;28;20031;-78
2022/03/16 00:11:14;;;;;;;2.75;2.03;;;;;;;;;;5092399;28;20020;-78
2022/03/16 00:13:39;;;;;;;1.70;1.60;;;;;;;;;;5092416;28;20056;-78
2022/03/16 00:16:05;;;;;;;2.38;2.17;;;;;;;;;;5092295;28;20464;-79
2022/03/16 00:18:30;;;;;;;2.47;2.28;;;;;;;;;;5092754;28;20558;-76
2022/03/16 00:20:56;;;;;;;0.28;0.28;;;;;;;;;;5092045;28;20103;-77
2022/03/16 00:23:21;;;;;;;1.17;1.08;;;;;;;;;;5092577;28;20024;-78
2022/03/16 00:25:46;;;;;;;0.70;0.70;;;;;;;;;;5091933;28;20024;-79
2022/03/16 00:28:12;;;;;;;1.38;1.35;;;;;;;;;;5091910;28;20047;-77
2022/03/16 00:30:37;;;;;;;1.67;1.58;;;;;;;;;;5091754;28;20012;-74
2022/03/16 00:33:03;;;;;;;1.38;1.27;;;;;;;;;;5091486;28;20148;-75
2022/03/16 00:35:28;;;;;;;2.85;2.65;;;;;;;;;;5091447;28;20532;-77
2022/03/16 00:37:54;;;;;;;2.08;1.92;;;;;;;;;;5091708;28;20028;-77
2022/03/16 00:40:19;;;;;;;0.77;0.77;;;;;;;;;;5091515;28;20116;-76
2022/03/16 00:42:45;;;;;;;1.88;1.77;;;;;;;;;;5091436;28;20012;-73
2022/03/16 00:45:10;;;;;;;1.75;1.65;;;;;;;;;;5091337;28;20016;-75
2022/03/16 00:47:35;;;;;;;1.75;1.65;;;;;;;;;;5091648;28;20028;-76
2022/03/16 00:50:01;;;;;;;8.30;3.38;;;;;;;;;;5091535;28;20035;-75
2022/03/16 00:52:26;;;;;;;1.35;1.25;;;;;;;;;;5091347;28;20024;-76
2022/03/16 00:54:51;;;;;;;2.17;2.08;;;;;;;;;;5090706;28;20023;-78
2022/03/16 00:57:17;;;;;;;3.67;3.35;;;;;;;;;;5091177;28;20086;-78
2022/03/16 00:59:42;;;;;;;3.17;3.00;;;;;;;;;;5091488;28;20107;-76
2022/03/16 01:02:07;;;;;;;3.78;3.47;;;;;;;;;;5092280;28;20042;-75
2022/03/16 01:04:33;;;;;;;2.35;2.15;;;;;;;;;;5091573;28;20020;-74
2022/03/16 01:06:58;;;;;;;1.98;1.88;;;;;;;;;;5091235;28;20527;-77
2022/03/16 01:09:23;;;;;;;1.50;1.50;;;;;;;;;;5092113;28;20025;-75
2022/03/16 01:11:49;;;;;;;3.92;1.45;;;;;;;;;;5091138;28;20023;-76
2022/03/16 01:14:14;;;;;;;3.45;3.15;;;;;;;;;;5091229;28;20020;-75
2022/03/16 01:16:39;;;;;;;0.80;0.80;;;;;;;;;;5091603;28;20387;-74
2022/03/16 01:19:05;;;;;;;1.88;1.75;;;;;;;;;;5090552;28;20053;-77
2022/03/16 01:21:31;;;;;;;1.52;1.42;;;;;;;;;;5091030;28;20024;-75
2022/03/16 01:23:56;;;;;;;0.93;0.93;;;;;;;;;;5090860;28;20020;-75
2022/03/16 01:26:21;;;;;;;2.60;2.50;;;;;;;;;;5091178;28;20016;-76
2022/03/16 01:28:47;;;;;;;8.57;1.83;;;;;;;;;;5090631;28;20020;-76
2022/03/16 01:31:12;;;;;;;3.65;3.28;;;;;;;;;;5090124;28;20020;-76
2022/03/16 01:33:37;;;;;;;1.30;1.17;;;;;;;;;;5090755;28;20030;-75
2022/03/16 01:36:03;;;;;;;1.20;1.13;;;;;;;;;;5090764;28;20052;-74
2022/03/16 01:38:28;;;;;;;1.50;1.45;;;;;;;;;;5090700;28;20475;-76
2022/03/16 01:40:53;;;;;;;1.05;1.00;;;;;;;;;;5090853;28;20081;-75
2022/03/16 01:43:19;;;;;;;0.75;0.75;;;;;;;;;;5091532;28;20069;-76
2022/03/16 01:45:48;;;;;;;0.80;0.80;;;;;;;;;;5090992;28;20471;-77
2022/03/16 01:48:13;;;;;;;3.90;0.75;;;;;;;;;;5091459;28;20020;-77
2022/03/16 01:50:39;;;;;;;1.00;1.00;;;;;;;;;;5090995;28;20047;-77
2022/03/16 01:53:04;;;;;;;1.48;1.45;;;;;;;;;;5091702;28;20070;-79
2022/03/16 01:55:29;;;;;;;1.35;1.33;;;;;;;;;;5090920;28;20403;-77
2022/03/16 01:57:55;;;;;;;1.98;1.88;;;;;;;;;;5090695;28;20103;-77
2022/03/16 02:00:22;;;;;;;0.70;0.70;;;;;;;;;;5090814;28;20035;-79
2022/03/16 02:02:47;;;;;;;1.40;1.40;;;;;;;;;;5091023;28;20110;-78
2022/03/16 02:05:13;;;;;;;2.22;2.03;;;;;;;;;;5090968;28;20399;-75
2022/03/16 02:07:40;;;;;;;4.00;1.73;;;;;;;;;;5093197;28;20399;-76
2022/03/16 02:10:05;;;;;;;3.50;1.20;;;;;;;;;;5094273;28;20534;-77
2022/03/16 02:12:41;;;;;;;0.65;0.65;;;;;;;;;;5094386;28;20107;-77
2022/03/16 02:15:06;;;;;;;1.30;1.27;;;;;;;;;;5094378;28;20016;-77
2022/03/16 02:17:31;;;;;;;3.08;2.42;;;;;;;;;;5094696;28;20027;-75
2022/03/16 02:19:57;;;;;;;2.08;1.25;;;;;;;;;;5094067;28;20637;-78
2022/03/16 02:22:22;;;;;;;0.68;0.68;;;;;;;;;;5094994;28;20020;-79
2022/03/16 02:24:47;;;;;;;7.53;2.05;;;;;;;;;;5094299;28;20475;-77
2022/03/16 02:27:12;;;;;;;1.05;1.05;;;;;;;;;;5094091;28;20028;-76
2022/03/16 02:29:38;;;;;;;0.70;0.70;;;;;;;;;;5094534;28;20023;-76
2022/03/16 02:32:03;;;;;;;1.98;1.88;;;;;;;;;;5094163;28;20012;-74
2022/03/16 02:34:29;;;;;;;0.50;0.50;;;;;;;;;;5093707;28;20052;-76
2022/03/16 02:36:54;;;;;;;1.13;1.13;;;;;;;;;;5094721;28;20122;-74
2022/03/16 02:39:19;;;;;;;0.50;0.50;;;;;;;;;;5094702;28;20028;-76
2022/03/16 02:41:48;;;;;;;1.20;1.20;;;;;;;;;;5093744;28;20077;-78
2022/03/16 02:44:13;;;;;;;0.52;0.52;;;;;;;;;;5093679;28;20020;-76
2022/03/16 02:46:38;;;;;;;1.23;1.13;;;;;;;;;;5094127;28;20027;-76
2022/03/16 02:49:04;;;;;;;0.38;0.38;;;;;;;;;;5093638;28;20020;-75
2022/03/16 02:51:29;;;;;;;0.28;0.28;;;;;;;;;;5093490;28;20153;-75
2022/03/16 02:53:54;;;;;;;1.40;0.93;;;;;;;;;;5093519;28;20016;-75
2022/03/16 02:56:20;;;;;;;2.28;1.15;;;;;;;;;;5093915;28;20111;-75
2022/03/16 02:58:45;;;;;;;0.73;0.73;;;;;;;;;;5094744;28;20035;-75
2022/03/16 03:01:11;;;;;;;0.55;0.55;;;;;;;;;;5093583;28;20024;-75
2022/03/16 03:03:36;;;;;;;6.05;0.68;;;;;;;;;;5093386;28;20016;-75
2022/03/16 03:06:01;;;;;;;0.47;0.47;;;;;;;;;;5093315;28;20460;-74
2022/03/16 03:08:27;;;;;;;0.30;0.30;;;;;;;;;;5093128;28;20016;-76
2022/03/16 03:10:52;;;;;;;0.65;0.65;;;;;;;;;;5092927;28;20093;-78
2022/03/16 03:13:17;;;;;;;0.85;0.85;;;;;;;;;;5093144;28;20527;-77
2022/03/16 03:15:43;;;;;;;1.35;1.25;;;;;;;;;;5093154;28;20019;-76
2022/03/16 03:18:08;;;;;;;2.15;2.08;;;;;;;;;;5092211;28;20024;-76
2022/03/16 03:20:34;;;;;;;1.70;1.02;;;;;;;;;;5092914;28;20024;-77
2022/03/16 03:22:59;;;;;;;0.40;0.40;;;;;;;;;;5093579;28;20024;-76
2022/03/16 03:25:24;;;;;;;1.88;0.60;;;;;;;;;;5093111;28;20464;-77
2022/03/16 03:27:50;;;;;;;0.95;0.95;;;;;;;;;;5092873;28;20028;-76
2022/03/16 03:30:15;;;;;;;4.20;2.90;;;;;;;;;;5092726;28;20023;-78
2022/03/16 03:32:41;;;;;;;0.80;0.80;;;;;;;;;;5093040;28;20055;-76
2022/03/16 03:35:07;;;;;;;3.75;3.47;;;;;;;;;;5092545;28;20509;-76
2022/03/16 03:37:32;;;;;;;2.13;2.03;;;;;;;;;;5092545;28;20058;-76
2022/03/16 03:39:58;;;;;;;0.77;0.77;;;;;;;;;;5092478;28;20024;-78
2022/03/16 03:42:23;;;;;;;1.42;1.38;;;;;;;;;;5093461;28;20019;-78
2022/03/16 03:44:49;;;;;;;2.40;2.20;;;;;;;;;;5092908;28;20024;-77
2022/03/16 03:47:14;;;;;;;1.90;1.80;;;;;;;;;;5093407;28;20107;-77
2022/03/16 03:49:40;;;;;;;1.25;1.15;;;;;;;;;;5092477;28;20115;-77
2022/03/16 03:52:06;;;;;;;1.48;1.40;;;;;;;;;;5092175;28;20134;-78
2022/03/16 03:54:31;;;;;;;0.52;0.52;;;;;;;;;;5093117;28;20023;-77
2022/03/16 03:56:57;;;;;;;0.82;0.82;;;;;;;;;;5092359;28;20496;-74
2022/03/16 03:59:25;;;;;;;1.30;0.68;;;;;;;;;;5091918;28;20035;-75
2022/03/16 04:01:50;;;;;;;;;;;;;;;;;;5092286;28;20048;-77
2022/03/16 04:04:16;;;;;;;1.87;1.70;;;;;;;;;;5092226;28;19904;-77
2022/03/16 04:06:41;;;;;;;4.75;2.25;;;;;;;;;;5092079;28;20506;-75
2022/03/16 04:09:07;;;;;;;0.50;0.50;;;;;;;;;;5092360;28;20024;-77
2022/03/16 04:11:32;;;;;;;1.67;1.58;;;;;;;;;;5092701;28;20459;-78
2022/03/16 04:13:58;;;;;;;0.80;0.80;;;;;;;;;;5092067;28;20438;-75
2022/03/16 04:16:23;;;;;;;1.15;1.15;;;;;;;;;;5091917;28;20079;-78
2022/03/16 04:18:48;;;;;;;0.45;0.45;;;;;;;;;;5091917;28;20035;-77
2022/03/16 04:21:14;;;;;;;0.68;0.68;;;;;;;;;;5093004;28;20436;-77
2022/03/16 04:23:39;;;;;;;2.55;2.45;;;;;;;;;;5092965;28;20506;-76
2022/03/16 04:26:04;;;;;;;1.00;1.00;;;;;;;;;;5093248;28;20095;-76
2022/03/16 04:28:30;;;;;;;1.42;1.33;;;;;;;;;;5093567;28;20024;-77
2022/03/16 04:30:55;;;;;;;1.75;1.65;;;;;;;;;;5092358;28;20392;-76
2022/03/16 04:33:20;;;;;;;0.68;0.68;;;;;;;;;;5093521;28;20020;-73
2022/03/16 04:35:46;;;;;;;0.43;0.43;;;;;;;;;;5092814;28;20079;-75
2022/03/16 04:38:11;;;;;;;0.85;0.85;;;;;;;;;;5092552;28;20031;-77
2022/03/16 04:40:36;;;;;;;0.50;0.50;;;;;;;;;;5093788;28;20116;-75
2022/03/16 04:43:02;;;;;;;1.67;1.27;;;;;;;;;;5093318;28;20020;-75
2022/03/16 04:45:27;;;;;;;0.95;0.95;;;;;;;;;;5092921;28;20377;-76
2022/03/16 04:47:53;;;;;;;0.50;0.50;;;;;;;;;;5092371;28;20062;-75
2022/03/16 04:50:18;;;;;;;0.82;0.82;;;;;;;;;;5092252;28;20024;-75
2022/03/16 04:52:44;;;;;;;0.47;0.47;;;;;;;;;;5092494;28;20016;-76
2022/03/16 04:55:10;;;;;;;1.63;1.58;;;;;;;;;;5092304;28;20020;-76
2022/03/16 04:57:35;;;;;;;0.85;0.85;;;;;;;;;;5091432;28;20376;-76
2022/03/16 05:00:01;;;;;;;2.00;1.90;;;;;;;;;;5091736;28;20020;-76
2022/03/16 05:02:26;;;;;;;2.45;2.33;;;;;;;;;;5091662;28;20012;-75
2022/03/16 05:04:52;;;;;;;1.40;1.33;;;;;;;;;;5091537;28;20073;-77
2022/03/16 05:07:17;;;;;;;0.50;0.50;;;;;;;;;;5092329;28;20055;-77
2022/03/16 05:09:42;;;;;;;1.77;1.75;;;;;;;;;;5091386;28;20441;-76
2022/03/16 05:12:08;;;;;;;2.90;2.15;;;;;;;;;;5091386;28;20012;-75
2022/03/16 05:14:33;;;;;;;2.22;0.98;;;;;;;;;;5091487;28;20464;-77
2022/03/16 05:16:58;;;;;;;0.98;0.98;;;;;;;;;;5091102;28;20693;-76
2022/03/16 05:19:26;;;;;;;0.30;0.30;;;;;;;;;;5091192;28;20024;-77
2022/03/16 05:21:51;;;;;;;0.52;0.52;;;;;;;;;;5091252;28;20195;-76
2022/03/16 05:24:19;;;;;;;2.83;1.80;;;;;;;;;;5091387;28;20464;-77
2022/03/16 05:26:45;;;;;;;3.25;2.88;;;;;;;;;;5091227;28;20420;-76
2022/03/16 05:29:10;;;;;;;2.20;1.58;;;;;;;;;;5091091;28;20024;-75
2022/03/16 05:31:35;;;;;;;9.63;3.00;;;;;;;;;;5090906;28;20058;-75
2022/03/16 05:34:01;;;;;;;1.90;1.23;;;;;;;;;;5090513;28;20034;-75
2022/03/16 05:36:26;;;;;;;2.17;1.48;;;;;;;;;;5090870;28;20028;-77
2022/03/16 05:38:51;;;;;;;2.05;1.95;;;;;;;;;;5091893;28;20136;-75
2022/03/16 05:41:17;;;;;;;0.40;0.40;;;;;;;;;;5091441;28;20118;-76
2022/03/16 05:43:43;;;;;;;1.20;1.10;;;;;;;;;;5094983;28;20080;-77
2022/03/16 05:46:08;;;;;;;1.45;1.35;;;;;;;;;;5094927;28;20016;-77
2022/03/16 05:48:33;;;;;;;2.25;2.15;;;;;;;;;;5094844;28;20468;-75
2022/03/16 05:50:58;;;;;;;0.68;0.68;;;;;;;;;;5095048;28;20058;-77
2022/03/16 05:53:24;;;;;;;1.05;1.05;;;;;;;;;;5094465;28;20028;-75
2022/03/16 05:55:49;;;;;;;0.45;0.45;;;;;;;;;;5094795;28;20081;-76
2022/03/16 05:58:14;;;;;;;3.20;0.95;;;;;;;;;;5094871;28;20016;-77
2022/03/16 06:00:42;;;;;;;4.90;2.03;;;;;;;;;;5094967;28;20424;-76
2022/03/16 06:03:07;;;;;;;1.00;1.00;;;;;;;;;;5095755;28;20357;-76
2022/03/16 06:05:33;;;;;;;2.30;2.17;;;;;;;;;;5094378;28;20020;-78
2022/03/16 06:07:59;;;;;;;1.33;1.27;;;;;;;;;;5094331;28;20395;-78
2022/03/16 06:10:25;;;;;;;7.78;3.58;;;;;;;;;;5094806;28;20047;-75
2022/03/16 06:12:50;;;;;;;7.85;5.57;;;;;;;;;;5094305;28;20479;-78
2022/03/16 06:15:15;;;;;;;1.52;1.42;;;;;;;;;;5094324;28;20016;-77
2022/03/16 06:17:41;;;;;;;9.20;8.05;;;;;;;;;;5093739;28;20039;-78
2022/03/16 06:20:06;;;;;;;11.13;6.95;;;;;;;;;;5095077;28;20023;-76
2022/03/16 06:22:32;;;;;;;7.38;2.95;;;;;;;;;;5094115;28;20028;-74
2022/03/16 06:24:57;;;;;;;0.43;0.43;;;;;;;;;;5094280;28;20099;-78
2022/03/16 06:27:22;;;;;;;0.65;0.65;;;;;;;;;;5093837;28;20112;-80
2022/03/16 06:29:47;;;;;;;1.25;1.15;;;;;;;;;;5093670;28;20026;-79
2022/03/16 06:32:13;;;;;;;1.15;1.15;;;;;;;;;;5093581;28;20032;-79
2022/03/16 06:34:38;;;;;;;1.13;1.13;;;;;;;;;;5092716;28;20048;-80
2022/03/16 06:37:04;;;;;;;1.85;1.20;;;;;;;;;;5093425;28;20039;-77
2022/03/16 06:39:29;;;;;;;1.83;1.38;;;;;;;;;;5093452;28;20032;-76
2022/03/16 06:41:54;;;;;;;3.47;3.28;;;;;;;;;;5093237;28;20539;-79
2022/03/16 06:44:19;;;;;;;2.63;2.42;;;;;;;;;;5093465;28;20487;-78
2022/03/16 06:46:47;;;;;;;0.43;0.43;;;;;;;;;;5093446;28;20020;-77
2022/03/16 06:49:12;;;;;;;1.95;1.85;;;;;;;;;;5093298;28;20016;-78
2022/03/16 06:51:37;;;;;;;0.65;0.63;;;;;;;;;;5092694;28;20024;-80
2022/03/16 06:54:03;;;;;;;0.70;0.70;;;;;;;;;;5092127;28;20016;-79
2022/03/16 06:56:28;;;;;;;1.45;1.23;;;;;;;;;;5092765;28;20083;-79
2022/03/16 06:58:54;;;;;;;1.50;1.45;;;;;;;;;;5091940;28;20020;-80
2022/03/16 07:01:19;;;;;;;1.50;1.40;;;;;;;;;;5092868;28;20020;-79
2022/03/16 07:03:45;;;;;;;1.02;1.02;;;;;;;;;;5092344;28;20012;-79
2022/03/16 07:06:11;;;;;;;0.77;0.77;;;;;;;;;;5093074;28;20058;-79
2022/03/16 07:08:36;;;;;;;2.65;1.55;;;;;;;;;;5093110;28;20035;-80
2022/03/16 07:11:01;;;;;;;0.63;0.63;;;;;;;;;;5092745;28;20111;-78
2022/03/16 07:13:26;;;;;;;3.05;2.63;;;;;;;;;;5092528;28;20013;-80
2022/03/16 07:15:52;;;;;;;0.95;0.90;;;;;;;;;;5092899;28;20027;-80
2022/03/16 07:18:19;;;;;;;2.67;1.55;;;;;;;;;;5092232;28;20468;-78
2022/03/16 07:20:45;;;;;;;1.50;1.40;;;;;;;;;;5092610;28;20085;-77
2022/03/16 07:23:12;;;;;;;1.15;1.15;;;;;;;;;;5092373;28;20120;-77
2022/03/16 07:25:40;;;;;;;1.52;1.45;;;;;;;;;;5091685;28;20016;-79
2022/03/16 07:28:06;;;;;;;3.10;2.90;;;;;;;;;;5092543;28;20073;-79
2022/03/16 07:30:32;;;;;;;2.10;1.67;;;;;;;;;;5092850;28;20172;-76
2022/03/16 07:32:57;;;;;;;2.03;1.92;;;;;;;;;;5092293;28;20135;-76
2022/03/16 07:35:26;;;;;;;1.27;1.27;;;;;;;;;;5091066;28;20048;-77
2022/03/16 07:37:52;;;;;;;3.75;2.85;;;;;;;;;;5091322;28;20024;-78
2022/03/16 07:40:17;;;;;;;1.77;1.67;;;;;;;;;;5091033;28;20016;-77
2022/03/16 07:42:46;;;;;;;4.03;3.70;;;;;;;;;;5092434;28;20020;-76
2022/03/16 07:45:12;;;;;;;4.93;3.72;;;;;;;;;;5091210;28;20023;-78
2022/03/16 07:47:37;;;;;;;5.30;3.90;;;;;;;;;;5090831;28;20396;-77
2022/03/16 07:50:02;;;;;;;3.55;2.95;;;;;;;;;;5092008;28;20020;-79
2022/03/16 07:52:28;;;;;;;5.03;4.63;;;;;;;;;;5092509;28;20019;-79
2022/03/16 07:54:54;;;;;;;4.65;4.28;;;;;;;;;;5091669;28;20054;-78
2022/03/16 07:57:19;;;;;;;5.43;2.95;;;;;;;;;;5091747;28;20024;-75
2022/03/16 07:59:45;;;;;;;12.27;4.50;;;;;;;;;;5091689;28;20030;-77
2022/03/16 08:02:14;;;;;;;5.88;4.07;;;;;;;;;;5091623;28;20042;-79
2022/03/16 08:04:39;;;;;;;5.15;4.75;;;;;;;;;;5091676;28;20103;-78
2022/03/16 08:07:04;;;;;;;4.05;3.75;;;;;;;;;;5091816;28;20047;-80
2022/03/16 08:09:30;;;;;;;15.82;6.35;;;;;;;;;;5091184;28;20027;-77
2022/03/16 08:11:55;;;;;;;4.13;3.80;;;;;;;;;;5091606;28;20111;-79
2022/03/16 08:14:20;;;;;;;7.70;5.90;;;;;;;;;;5091539;28;20403;-78
2022/03/16 08:16:46;;;;;;;8.07;5.85;;;;;;;;;;5090881;28;20278;-76
2022/03/16 08:19:13;;;;;;;4.63;4.18;;;;;;;;;;5091508;28;20028;-75
2022/03/16 08:21:38;;;;;;;3.03;2.83;;;;;;;;;;5091382;28;20073;-76
2022/03/16 08:24:04;;;;;;;6.20;5.25;;;;;;;;;;5091299;28;20024;-78
2022/03/16 08:26:29;;;;;;;2.78;2.47;;;;;;;;;;5091905;28;20149;-78
2022/03/16 08:28:54;;;;;;;4.47;3.90;;;;;;;;;;5091140;28;20047;-76
2022/03/16 08:31:20;;;;;;;74.93;36.85;;;;;;;;;;5091082;28;20051;-77
2022/03/16 08:33:45;;;;;;;43.10;24.80;;;;;;;;;;5089906;28;20046;-78
2022/03/16 08:36:11;;;;;;;4.45;4.20;;;;;;;;;;5089672;28;20110;-78
2022/03/16 08:38:37;;;;;;;2.13;2.03;;;;;;;;;;5089776;28;20020;-79
2022/03/16 08:41:10;;;;;;;10.65;6.00;;;;;;;;;;5089598;28;20028;-76
2022/03/16 08:43:37;;;;;;;2.58;2.40;;;;;;;;;;5089980;28;20027;-77
2022/03/16 08:46:02;;;;;;;9.73;3.88;;;;;;;;;;5091010;28;20058;-79
2022/03/16 08:48:27;;;;;;;2.88;2.67;;;;;;;;;;5090932;28;20055;-78
2022/03/16 08:50:53;;;;;;;8.70;3.25;;;;;;;;;;5091093;28;20028;-78
2022/03/16 08:53:18;;;;;;;4.18;1.77;;;;;;;;;;5091034;28;20066;-78
2022/03/16 08:55:44;;;;;;;2.15;1.95;;;;;;;;;;5090477;28;20047;-79
2022/03/16 08:58:09;;;;;;;4.32;3.90;;;;;;;;;;5091032;28;20110;-79
2022/03/16 09:00:34;;;;;;;4.95;3.50;;;;;;;;;;5090676;28;20024;-79
2022/03/16 09:03:00;;;;;;;2.70;2.50;;;;;;;;;;5090675;28;20073;-78
2022/03/16 09:05:25;;;;;;;3.45;3.15;;;;;;;;;;5090758;28;20094;-78
2022/03/16 09:07:51;;;;;;;2.17;1.70;;;;;;;;;;5091519;28;20440;-79
2022/03/16 09:10:16;;;;;;;2.10;1.75;;;;;;;;;;5090481;28;20020;-76
2022/03/16 09:12:41;;;;;;;3.37;2.27;;;;;;;;;;5090588;28;20495;-76
2022/03/16 09:15:07;;;;;;;6.18;5.15;;;;;;;;;;5090553;28;20246;-78
2022/03/16 09:17:33;;;;;;;5.88;4.70;;;;;;;;;;5092848;28;20031;-77
2022/03/16 09:19:58;;;;;;;2.45;2.35;;;;;;;;;;5095499;28;20080;-79
2022/03/16 09:22:24;;;;;;;11.95;3.33;;;;;;;;;;5094828;28;20566;-78
2022/03/16 09:24:49;;;;;;;3.80;3.47;;;;;;;;;;5094866;28;20020;-79
2022/03/16 09:27:16;;;;;;;2.78;2.55;;;;;;;;;;5094914;28;20472;-78
2022/03/16 09:29:46;;;;;;;2.28;2.17;;;;;;;;;;5094676;28;20056;-77
2022/03/16 09:32:11;;;;;;;1.60;1.60;;;;;;;;;;5094491;28;20027;-79
2022/03/16 09:34:38;;;;;;;3.50;2.53;;;;;;;;;;5094739;28;20559;-77
2022/03/16 09:37:04;;;;;;;4.55;3.70;;;;;;;;;;5095047;28;20175;-78
2022/03/16 09:39:29;;;;;;;4.45;3.83;;;;;;;;;;5094153;28;20020;-79
2022/03/16 09:41:55;;;;;;;5.18;2.75;;;;;;;;;;5094373;28;20027;-78
2022/03/16 09:44:21;;;;;;;2.60;2.40;;;;;;;;;;5094331;28;20020;-79
2022/03/16 09:46:47;;;;;;;2.35;2.22;;;;;;;;;;5094279;28;20043;-77
2022/03/16 09:49:14;;;;;;;1.33;1.33;;;;;;;;;;5094579;28;20028;-78
2022/03/16 09:51:41;;;;;;;7.97;3.65;;;;;;;;;;5094126;28;20544;-78
2022/03/16 09:54:07;;;;;;;4.15;3.85;;;;;;;;;;5093959;28;20029;-80
2022/03/16 09:56:33;;;;;;;10.30;2.13;;;;;;;;;;5094129;28;20023;-79
2022/03/16 09:58:58;;;;;;;2.10;2.00;;;;;;;;;;5093919;28;20024;-78
2022/03/16 10:01:23;;;;;;;3.20;2.10;;;;;;;;;;5094092;28;20486;-76
2022/03/16 10:03:49;;;;;;;3.35;2.15;;;;;;;;;;5093890;28;20498;-79
2022/03/16 10:06:16;;;;;;;3.08;2.83;;;;;;;;;;5094180;28;20368;-78
2022/03/16 10:08:42;;;;;;;1.73;1.63;;;;;;;;;;5093770;28;20028;-79
2022/03/16 10:14:15;;;;;;;2.10;1.95;;;;;;;;;;5095124;28;20030;-78
2022/03/16 10:19:44;;;;;;;2.88;2.67;;;;;;;;;;5095028;28;20027;-78
2022/03/16 10:22:09;;;;;;;3.10;2.85;;;;;;;;;;5093495;28;20028;-77
2022/03/16 10:24:41;;;;;;;0.80;0.80;;;;;;;;;;5093543;28;20110;-79
2022/03/16 10:27:06;;;;;;;9.43;2.35;;;;;;;;;;5093657;28;20081;-79
2022/03/16 10:29:31;;;;;;;1.33;1.23;;;;;;;;;;5093307;28;20400;-80
2022/03/16 10:32:04;;;;;;;9.52;3.25;;;;;;;;;;5093408;28;20284;-79
2022/03/16 10:34:30;;;;;;;2.67;2.47;;;;;;;;;;5093016;28;20024;-80
2022/03/16 10:36:59;;;;;;;3.50;3.20;;;;;;;;;;5093765;28;20024;-79
2022/03/16 10:39:34;;;;;;;4.10;3.22;;;;;;;;;;5092965;28;20055;-76
2022/03/16 10:47:48;;;;;;;1.85;1.45;;;;;;;;;;5094693;28;20034;-80
2022/03/16 10:50:15;;;;;;;3.58;2.20;;;;;;;;;;5093403;28;20066;-80
2022/03/16 10:52:41;;;;;;;0.90;0.90;;;;;;;;;;5093231;28;20020;-80
2022/03/16 10:55:07;;;;;;;4.13;2.90;;;;;;;;;;5092809;28;20464;-79
2022/03/16 10:57:33;;;;;;;4.10;2.22;;;;;;;;;;5092642;28;20052;-77
2022/03/16 10:59:59;;;;;;;1.83;1.45;;;;;;;;;;5093161;28;20549;-79
2022/03/16 11:02:29;;;;;;;2.75;2.58;;;;;;;;;;5092850;28;20042;-79
2022/03/16 11:04:57;;;;;;;2.67;2.47;;;;;;;;;;5092989;28;20479;-80
2022/03/16 11:07:24;;;;;;;5.45;3.22;;;;;;;;;;5092835;28;20115;-80
2022/03/16 11:09:51;;;;;;;2.67;2.58;;;;;;;;;;5092356;28;20028;-79
2022/03/16 11:15:04;;;;;;;1.98;1.88;;;;;;;;;;5093900;28;20031;-80
2022/03/16 11:17:30;;;;;;;2.70;2.47;;;;;;;;;;5092442;28;20070;-80
2022/03/16 11:19:56;;;;;;;7.68;3.60;;;;;;;;;;5094313;28;20034;-78
2022/03/16 11:22:24;;;;;;;3.40;3.15;;;;;;;;;;5092658;28;20106;-80
2022/03/16 11:25:00;;;;;;;1.73;1.58;;;;;;;;;;5092698;28;20027;-78
2022/03/16 11:27:40;;;;;;;1.45;1.35;;;;;;;;;;5092022;28;20095;-77
2022/03/16 11:30:09;;;;;;;2.90;2.35;;;;;;;;;;5092034;28;20506;-79
2022/03/16 11:32:35;;;;;;;;;;;;;;;;;;5093162;28;20418;-78
2022/03/16 11:35:00;;;;;;;2.00;1.85;;;;;;;;;;5092712;28;19973;-79
2022/03/16 11:37:36;;;;;;;4.72;4.43;;;;;;;;;;5092696;28;20409;-78
2022/03/16 11:40:05;;;;;;;2.83;2.63;;;;;;;;;;5092921;28;20056;-79
2022/03/16 11:42:32;;;;;;;2.90;2.70;;;;;;;;;;5091240;28;20023;-80
2022/03/16 11:45:19;;;;;;;3.03;1.85;;;;;;;;;;5093561;28;20020;-79
2022/03/16 11:47:46;;;;;;;6.53;3.75;;;;;;;;;;5092043;28;20102;-80
2022/03/16 11:50:16;;;;;;;3.53;3.25;;;;;;;;;;5092255;28;20016;-80
2022/03/16 11:53:00;;;;;;;1.33;1.33;;;;;;;;;;5092229;28;20016;-78
2022/03/16 11:55:37;;;;;;;2.78;2.60;;;;;;;;;;5091880;28;20023;-79
2022/03/16 11:58:14;;;;;;;2.80;2.58;;;;;;;;;;5092995;28;20020;-79
2022/03/16 12:00:40;;;;;;;10.57;6.97;;;;;;;;;;5091873;28;20028;-79
2022/03/16 12:03:05;;;;;;;7.53;5.93;;;;;;;;;;5090285;28;21016;-79
2022/03/16 12:05:36;;;;;;;2.78;2.60;;;;;;;;;;5090447;28;20020;-79
2022/03/16 12:08:24;;;;;;;5.93;2.15;;;;;;;;;;5091012;28;20031;-79
2022/03/16 12:12:50;;;;;;;5.03;4.55;;;;;;;;;;5092210;28;20012;-76
2022/03/16 12:13:45;;;;;;;17.83;3.58;;;;;;;;;;5088734;28;20511;-80
2022/03/16 12:16:12;;;;;;;5.18;4.68;;;;;;;;;;5090608;28;20055;-79
2022/03/16 12:18:40;;;;;;;4.95;3.25;;;;;;;;;;5080426;28;20104;-76
2022/03/16 12:21:07;;;;;;;30.85;4.57;;;;;;;;;;5072463;28;20020;-81
2022/03/16 12:23:58;;;;;;;2.95;2.75;;;;;;;;;;5077350;28;20442;-77
2022/03/16 12:26:25;;;;;;;12.70;5.10;;;;;;;;;;5075447;28;20019;-77
2022/03/16 12:28:58;;;;;;;4.03;2.80;;;;;;;;;;5072565;28;20039;-75
2022/03/16 12:31:24;;;;;;;17.75;4.95;;;;;;;;;;5077271;28;20012;-75
2022/03/16 12:33:55;;;;;;;4.00;3.70;;;;;;;;;;5073498;28;20031;-76
2022/03/16 12:36:23;;;;;;;2.35;2.05;;;;;;;;;;5070947;28;20052;-80
2022/03/16 12:38:52;;;;;;;2.63;2.42;;;;;;;;;;5073976;28;20024;-76
2022/03/16 12:44:03;;;;;;;4.18;3.17;;;;;;;;;;5071060;28;20721;-76
2022/03/16 12:46:36;;;;;;;4.63;3.65;;;;;;;;;;5069266;28;20269;-74
2022/03/16 12:49:05;;;;;;;3.05;2.85;;;;;;;;;;5072212;28;20096;-78
2022/03/16 12:51:45;;;;;;;3.85;3.55;;;;;;;;;;5068520;28;20411;-76
2022/03/16 12:54:29;;;;;;;2.25;2.15;;;;;;;;;;5069999;28;20032;-80
2022/03/16 12:57:01;;;;;;;6.25;5.68;;;;;;;;;;5083002;28;20031;-80
2022/03/16 12:59:34;;;;;;;1.25;1.25;;;;;;;;;;5090391;28;20020;-80
2022/03/16 13:02:03;;;;;;;9.85;7.10;;;;;;;;;;5090552;28;20103;-76
2022/03/16 13:04:29;;;;;;;3.95;3.65;;;;;;;;;;5090749;28;20480;-79
2022/03/16 13:06:56;;;;;;;4.80;3.53;;;;;;;;;;5091146;28;20035;-79
2022/03/16 13:09:26;;;;;;;16.63;7.60;;;;;;;;;;5091021;28;20020;-78
2022/03/16 13:11:59;;;;;;;8.85;6.85;;;;;;;;;;5079912;28;20018;-75
2022/03/16 13:14:29;;;;;;;5.78;4.03;;;;;;;;;;5071542;28;20031;-77
2022/03/16 13:16:58;;;;;;;3.47;2.75;;;;;;;;;;5068997;28;20109;-76
2022/03/16 13:19:24;;;;;;;;;;;;;;;;;;5070447;28;20028;-77
2022/03/16 13:21:52;;;;;;;6.65;3.58;;;;;;;;;;5068358;28;20454;-75
2022/03/16 13:24:17;;;;;;;2.80;2.60;;;;;;;;;;5072138;28;20031;-77
2022/03/16 13:26:43;;;;;;;2.67;2.03;;;;;;;;;;5070455;28;20356;-76
2022/03/16 13:29:09;;;;;;;8.37;2.63;;;;;;;;;;5071170;28;20019;-77
2022/03/16 13:31:35;;;;;;;4.88;4.53;;;;;;;;;;5069171;28;20265;-76
2022/03/16 13:34:01;;;;;;;4.20;3.15;;;;;;;;;;5070810;28;20024;-76
2022/03/16 13:36:34;;;;;;;4.63;3.78;;;;;;;;;;5073884;28;20131;-75
2022/03/16 13:39:00;;;;;;;4.63;4.22;;;;;;;;;;5080147;28;20024;-78
2022/03/16 13:41:26;;;;;;;7.15;2.67;;;;;;;;;;5089255;28;20024;-78
2022/03/16 13:44:01;;;;;;;16.23;12.70;;;;;;;;;;5090318;28;20012;-77
2022/03/16 13:46:36;;;;;;;7.90;6.53;;;;;;;;;;5090371;28;20023;-78
2022/03/16 13:49:07;;;;;;;4.05;3.67;;;;;;;;;;5090743;28;20012;-78
2022/03/16 13:51:34;;;;;;;5.82;4.63;;;;;;;;;;5090879;28;20028;-77
2022/03/16 13:54:02;;;;;;;3.92;3.33;;;;;;;;;;5091779;28;20468;-76
2022/03/16 13:56:27;;;;;;;4.30;1.90;;;;;;;;;;5090628;28;20012;-77
2022/03/16 13:58:53;;;;;;;3.22;2.97;;;;;;;;;;5090614;28;20031;-78
2022/03/16 14:01:19;;;;;;;3.65;3.38;;;;;;;;;;5090645;28;20024;-79
2022/03/16 14:03:44;;;;;;;4.90;3.85;;;;;;;;;;5093393;28;20399;-79
2022/03/16 14:06:15;;;;;;;4.13;2.80;;;;;;;;;;5094163;28;20415;-79
2022/03/16 14:08:40;;;;;;;5.07;4.65;;;;;;;;;;5094471;28;20030;-78
2022/03/16 14:11:05;;;;;;;2.97;2.78;;;;;;;;;;5094243;28;20024;-77
2022/03/16 14:13:42;;;;;;;9.93;4.63;;;;;;;;;;5094288;28;20020;-77
2022/03/16 14:16:12;;;;;;;2.53;2.33;;;;;;;;;;5094159;28;20257;-78
2022/03/16 14:18:38;;;;;;;4.60;4.20;;;;;;;;;;5094027;28;20035;-78
2022/03/16 14:21:03;;;;;;;2.20;2.10;;;;;;;;;;5094266;28;20024;-78
2022/03/16 14:23:29;;;;;;;3.65;2.72;;;;;;;;;;5093987;28;20472;-78
2022/03/16 14:25:57;;;;;;;2.78;2.58;;;;;;;;;;5094005;28;20073;-77
2022/03/16 14:28:22;;;;;;;2.10;1.77;;;;;;;;;;5094011;28;20030;-79
2022/03/16 14:30:49;;;;;;;5.65;4.05;;;;;;;;;;5093952;28;20008;-79
2022/03/16 14:33:15;;;;;;;3.95;2.35;;;;;;;;;;5093813;28;20043;-79
2022/03/16 14:35:40;;;;;;;3.80;3.50;;;;;;;;;;5093559;28;20078;-80
2022/03/16 14:38:06;;;;;;;4.15;3.80;;;;;;;;;;5093671;28;20028;-79
2022/03/16 14:40:34;;;;;;;3.47;2.75;;;;;;;;;;5093451;28;20020;-76
2022/03/16 14:42:59;;;;;;;3.20;2.95;;;;;;;;;;5094198;28;20027;-76
2022/03/16 14:45:25;;;;;;;4.00;2.78;;;;;;;;;;5093723;28;20028;-79
2022/03/16 14:47:54;;;;;;;1.95;1.77;;;;;;;;;;5093897;28;20020;-76
2022/03/16 14:50:23;;;;;;;4.30;3.92;;;;;;;;;;5093537;28;20062;-80
2022/03/16 14:52:48;;;;;;;4.28;3.75;;;;;;;;;;5093546;28;20019;-79
2022/03/16 14:55:14;;;;;;;3.40;2.72;;;;;;;;;;5093463;28;20020;-79
2022/03/16 14:57:39;;;;;;;3.53;3.22;;;;;;;;;;5093359;28;20020;-75